Hauptseite
METAR-TAF:

METAR-TAF

Flughäfen :

St Mary’s Airport

Scilly-Inseln, England

Breite: 49-55N, Länge: 006-18W, Höhe: 31 m

Beobachtung

Neuester Wetterbericht von vor 2 Stunden und 40 Minuten, um 16:50 UTC
Wind 3 kt aus Ost/Südost
Temperatur 14°C
Luftfeuchtigkeit 77%
Luftdruck 1019 hPa
Sichtweite 10 km oder mehr
keine Wolken unter 1500 m und keine Kumulonimbus oder Gewitterwolken

METAR: EGHE 221650Z 11003KT CAVOK 14/10 Q1019

Zeit: 20:30 (19:30 UTC)

Prognose

Neuester Wetterbericht von vor 5 Stunden und 33 Minuten, um 13:57 UTC
Gültige Prognose vom 22 um 15 UTC bis 22 um 18 UTC
Wind 6 kt aus Ost/Nordost
Sichtweite 10 km oder mehr
Leicht bewölkt in der Höhe von 3000 ft

TAF: EGHE 221357Z 2215/2218 07006KT 9999 FEW030

Wetterbeobachtungen und Prognosen von mehr als 4000 Flughäfen (METAR und TAF Bericht).

Die verfügbaren Stationen werden durch gelbe und rote Markierungen auf der Karte dargestellt.

Führen Sie die Maus auf sie, um den Namen der Station zu sehen.

Darauf klicken, um die Beobachtung von Wetterbeobachtungen und Prognosen zu sehen.

Um die Karte zu ändern : klicken Sie auf den grünen Tasten mit einem schwarzen Kreuz Zum Vergrößern, auf den grünen Button mit einem Gedankenstrich zu verkleinern, oder auf die grünen Pfeile für benachbarte Karten.


METAR-TAF: